createdAt,value
2017-01-27T00:00:44.112Z,0
2017-01-27T00:01:53.591Z,0
2017-01-27T00:03:03.393Z,0
2017-01-27T00:04:12.861Z,0
2017-01-27T00:05:21.908Z,0
2017-01-27T00:06:30.937Z,0
2017-01-27T00:07:41.123Z,0
2017-01-27T00:08:50.920Z,0
2017-01-27T00:10:00.342Z,0
2017-01-27T00:11:10.159Z,0
2017-01-27T00:12:18.837Z,0
2017-01-27T00:13:28.268Z,0
2017-01-27T00:14:38.072Z,0
2017-01-27T00:15:47.522Z,0
2017-01-27T00:16:56.562Z,0
2017-01-27T00:18:06.411Z,0
2017-01-27T00:19:15.451Z,0
2017-01-27T00:20:24.506Z,0
2017-01-27T00:21:34.336Z,0
2017-01-27T00:22:44.131Z,0
2017-01-27T00:23:53.176Z,0
2017-01-27T00:25:03.436Z,0
2017-01-27T00:26:12.118Z,0
2017-01-27T00:27:21.193Z,0
2017-01-27T00:28:31.370Z,0
2017-01-27T00:29:41.552Z,0
2017-01-27T00:30:51.777Z,0
2017-01-27T00:32:00.807Z,0
2017-01-27T00:33:10.220Z,0
2017-01-27T00:34:19.252Z,0
2017-01-27T00:35:28.667Z,0
2017-01-27T00:36:38.102Z,0
2017-01-27T00:37:47.532Z,0
2017-01-27T00:38:56.220Z,0
2017-01-27T00:40:06.056Z,0
2017-01-27T00:41:15.472Z,0
2017-01-27T00:42:25.677Z,0
2017-01-27T00:43:35.171Z,0
2017-01-27T00:44:43.825Z,0
2017-01-27T00:45:53.288Z,0
2017-01-27T00:47:03.147Z,0
2017-01-27T00:48:12.180Z,0
2017-01-27T00:49:21.223Z,0
2017-01-27T00:50:30.268Z,0
2017-01-27T00:51:40.073Z,0
2017-01-27T00:52:49.495Z,0
2017-01-27T00:53:58.907Z,0
2017-01-27T00:55:07.950Z,0
2017-01-27T00:56:16.614Z,0
2017-01-27T00:57:26.413Z,0
2017-01-27T00:58:35.462Z,0
2017-01-27T00:59:44.880Z,0
2017-01-27T01:00:54.334Z,0
2017-01-27T01:02:03.384Z,0
2017-01-27T01:03:12.424Z,0
2017-01-27T01:04:21.872Z,0
2017-01-27T01:05:30.910Z,0
2017-01-27T01:06:40.359Z,0
2017-01-27T01:07:49.775Z,0
2017-01-27T01:08:59.567Z,0
2017-01-27T01:10:09.436Z,0
2017-01-27T01:11:18.473Z,0
2017-01-27T01:12:28.656Z,0
2017-01-27T01:13:38.456Z,0
2017-01-27T01:14:48.645Z,0
2017-01-27T01:15:58.444Z,0
2017-01-27T01:17:07.096Z,0
2017-01-27T01:18:16.136Z,0
2017-01-27T01:19:25.551Z,0
2017-01-27T01:20:35.728Z,0
2017-01-27T01:21:45.514Z,0
2017-01-27T01:22:54.545Z,0
2017-01-27T01:24:03.581Z,0
2017-01-27T01:25:13.376Z,0
2017-01-27T01:26:22.791Z,0
2017-01-27T01:27:33.026Z,0
2017-01-27T01:28:42.441Z,0
2017-01-27T01:29:51.471Z,0
2017-01-27T01:31:00.132Z,0
2017-01-27T01:32:09.541Z,0
2017-01-27T01:33:19.338Z,0
2017-01-27T01:34:28.752Z,0
2017-01-27T01:35:37.404Z,0
2017-01-27T01:36:46.810Z,0
2017-01-27T01:37:56.221Z,0
2017-01-27T01:39:05.251Z,0
2017-01-27T01:40:13.903Z,0
2017-01-27T01:41:22.934Z,0
2017-01-27T01:42:31.966Z,0
2017-01-27T01:43:40.618Z,0
2017-01-27T01:44:49.269Z,0
2017-01-27T01:45:57.935Z,0
2017-01-27T01:47:07.740Z,0
2017-01-27T01:48:16.776Z,0
2017-01-27T01:49:25.806Z,0
2017-01-27T01:50:35.248Z,0
2017-01-27T01:51:44.288Z,0
2017-01-27T01:52:53.697Z,0
2017-01-27T01:54:03.878Z,0
2017-01-27T01:55:13.311Z,0
2017-01-27T01:56:22.728Z,0
2017-01-27T01:57:32.542Z,0
2017-01-27T01:58:42.731Z,0
2017-01-27T01:59:52.534Z,0
2017-01-27T02:01:02.333Z,0
2017-01-27T02:02:12.128Z,0
2017-01-27T02:03:21.543Z,0
2017-01-27T02:04:32.107Z,0
2017-01-27T02:05:42.287Z,0
2017-01-27T02:06:52.467Z,0
2017-01-27T02:08:01.883Z,0
2017-01-27T02:09:11.680Z,0
2017-01-27T02:10:21.476Z,0
2017-01-27T02:11:30.896Z,0
2017-01-27T02:12:41.077Z,0
2017-01-27T02:13:50.874Z,0
2017-01-27T02:15:00.668Z,0
2017-01-27T02:16:10.850Z,0
2017-01-27T02:17:21.416Z,0
2017-01-27T02:18:30.838Z,0
2017-01-27T02:19:40.637Z,0
2017-01-27T02:20:50.055Z,0
2017-01-27T02:21:59.854Z,0
2017-01-27T02:23:08.887Z,0
2017-01-27T02:24:17.540Z,0
2017-01-27T02:25:26.953Z,0
2017-01-27T02:26:36.363Z,0
2017-01-27T02:27:46.157Z,0
2017-01-27T02:28:55.199Z,0
2017-01-27T02:30:03.854Z,0
2017-01-27T02:31:13.649Z,0
2017-01-27T02:32:23.069Z,0
2017-01-27T02:33:32.485Z,0
2017-01-27T02:34:42.279Z,0
2017-01-27T02:35:52.847Z,0
2017-01-27T02:37:01.882Z,0
2017-01-27T02:38:11.298Z,0
2017-01-27T02:39:20.334Z,0
2017-01-27T02:40:29.367Z,0
2017-01-27T02:41:38.396Z,0
2017-01-27T02:42:48.196Z,0
2017-01-27T02:43:57.989Z,0
2017-01-27T02:45:07.404Z,0
2017-01-27T02:46:16.435Z,0
2017-01-27T02:47:25.850Z,0
2017-01-27T02:48:35.648Z,0
2017-01-27T02:49:45.446Z,0
2017-01-27T02:50:54.855Z,0
2017-01-27T02:52:04.647Z,0
2017-01-27T02:53:13.676Z,0
2017-01-27T02:54:23.471Z,0
2017-01-27T02:55:32.884Z,0
2017-01-27T02:56:41.917Z,0
2017-01-27T02:57:51.336Z,0
2017-01-27T02:59:00.375Z,0
2017-01-27T03:00:09.802Z,0
2017-01-27T03:01:18.833Z,0
2017-01-27T03:03:41.801Z,0
2017-01-27T03:04:51.225Z,0
2017-01-27T03:06:00.677Z,0
2017-01-27T03:07:09.710Z,0
2017-01-27T03:08:19.125Z,0
2017-01-27T03:09:28.543Z,0
2017-01-27T03:10:37.957Z,0
2017-01-27T03:11:46.999Z,0
2017-01-27T03:12:56.421Z,0
2017-01-27T03:14:05.078Z,0
2017-01-27T03:15:14.116Z,0
2017-01-27T03:16:24.297Z,0
2017-01-27T03:17:33.329Z,0
2017-01-27T03:18:42.744Z,0
2017-01-27T03:19:52.163Z,0
2017-01-27T03:21:00.816Z,0
2017-01-27T03:22:09.853Z,0
2017-01-27T03:23:18.887Z,0
2017-01-27T03:24:28.687Z,0
2017-01-27T03:25:38.101Z,0
2017-01-27T03:26:46.753Z,0
2017-01-27T03:27:56.165Z,0
2017-01-27T03:29:05.578Z,0
2017-01-27T03:30:15.367Z,0
2017-01-27T03:31:24.784Z,0
2017-01-27T03:32:33.432Z,0
2017-01-27T03:33:42.847Z,0
2017-01-27T03:34:52.640Z,0
2017-01-27T03:36:02.067Z,0
2017-01-27T03:37:12.630Z,0
2017-01-27T03:38:21.279Z,0
2017-01-27T03:39:31.075Z,0
2017-01-27T03:40:40.492Z,0
2017-01-27T03:41:50.290Z,0
2017-01-27T03:42:59.704Z,0
2017-01-27T03:44:08.359Z,0
2017-01-27T03:45:17.395Z,0
2017-01-27T03:46:26.428Z,0
2017-01-27T03:47:35.844Z,0
2017-01-27T03:48:45.642Z,0
2017-01-27T03:49:54.715Z,0
2017-01-27T03:51:04.897Z,0
2017-01-27T03:52:13.571Z,0
2017-01-27T03:53:23.372Z,0
2017-01-27T03:54:32.407Z,0
2017-01-27T03:55:41.823Z,0
2017-01-27T03:56:51.248Z,0
2017-01-27T03:58:00.664Z,0
2017-01-27T03:59:10.086Z,0
2017-01-27T04:00:19.115Z,0
2017-01-27T04:01:28.907Z,0
2017-01-27T04:02:38.318Z,0
2017-01-27T04:03:47.734Z,0
2017-01-27T04:04:57.148Z,0
2017-01-27T04:06:06.182Z,0
2017-01-27T04:07:15.605Z,0
2017-01-27T04:08:25.019Z,0
2017-01-27T04:09:34.054Z,0
2017-01-27T04:10:43.891Z,0
2017-01-27T04:11:53.307Z,0
2017-01-27T04:13:02.725Z,0
2017-01-27T04:14:11.756Z,0
2017-01-27T04:15:21.169Z,0
2017-01-27T04:16:30.965Z,0
2017-01-27T04:17:40.385Z,0
2017-01-27T04:18:50.184Z,0
2017-01-27T04:20:00.752Z,0
2017-01-27T04:21:10.548Z,0
2017-01-27T04:22:20.341Z,0
2017-01-27T04:23:29.758Z,0
2017-01-27T04:24:39.562Z,0
2017-01-27T04:25:48.974Z,0
2017-01-27T04:26:59.151Z,0
2017-01-27T04:28:08.560Z,0
2017-01-27T04:29:17.247Z,0
2017-01-27T04:30:26.656Z,0
2017-01-27T04:31:36.100Z,0
2017-01-27T04:32:45.899Z,0
2017-01-27T04:33:55.320Z,0
2017-01-27T04:35:05.126Z,0
2017-01-27T04:36:14.925Z,0
2017-01-27T04:37:24.339Z,0
2017-01-27T04:38:33.804Z,0
2017-01-27T04:39:43.226Z,0
2017-01-27T04:40:53.021Z,0
2017-01-27T04:42:02.442Z,0
2017-01-27T04:43:12.622Z,0
2017-01-27T04:44:21.277Z,0
2017-01-27T04:45:30.308Z,0
2017-01-27T04:46:39.341Z,0
2017-01-27T04:47:49.518Z,0
2017-01-27T04:48:58.964Z,0
2017-01-27T04:50:08.775Z,0
2017-01-27T04:51:18.197Z,0
2017-01-27T04:52:27.996Z,0
2017-01-27T04:53:37.795Z,0
2017-01-27T04:54:47.231Z,0
2017-01-27T04:55:56.646Z,0
2017-01-27T04:57:05.690Z,0
2017-01-27T04:58:14.726Z,0
2017-01-27T04:59:24.143Z,0
2017-01-27T05:00:33.561Z,0
2017-01-27T05:01:42.982Z,0
2017-01-27T05:02:52.395Z,0
2017-01-27T05:04:01.822Z,0
2017-01-27T05:05:11.234Z,0
2017-01-27T05:06:21.032Z,0
2017-01-27T05:07:29.686Z,0
2017-01-27T05:08:38.721Z,0
2017-01-27T05:09:47.784Z,0
2017-01-27T05:10:57.578Z,0
2017-01-27T05:12:06.633Z,0
2017-01-27T05:13:16.428Z,0
2017-01-27T05:14:25.463Z,0
2017-01-27T05:15:34.492Z,0
2017-01-27T05:16:43.914Z,0
2017-01-27T05:17:53.335Z,0
2017-01-27T05:19:02.369Z,0
2017-01-27T05:20:11.783Z,0
2017-01-27T05:21:21.196Z,0
2017-01-27T05:22:30.226Z,0
2017-01-27T05:23:39.646Z,0
2017-01-27T05:24:49.475Z,0
2017-01-27T05:25:58.891Z,0
2017-01-27T05:27:08.696Z,0
2017-01-27T05:28:18.508Z,0
2017-01-27T05:29:28.688Z,0
2017-01-27T05:30:37.716Z,0
2017-01-27T05:31:47.135Z,0
2017-01-27T05:32:56.936Z,0
2017-01-27T05:34:05.975Z,0
2017-01-27T05:35:15.388Z,0
2017-01-27T05:36:25.564Z,0
2017-01-27T05:37:35.366Z,0
2017-01-27T05:38:44.403Z,0
2017-01-27T05:39:54.200Z,0
2017-01-27T05:41:04.007Z,0
2017-01-27T05:42:13.830Z,0
2017-01-27T05:43:23.250Z,0
2017-01-27T05:44:33.051Z,0
2017-01-27T05:45:43.234Z,0
2017-01-27T05:46:52.654Z,0
2017-01-27T05:48:01.689Z,0
2017-01-27T05:49:11.123Z,0
2017-01-27T05:50:20.926Z,0
2017-01-27T05:51:30.348Z,0
2017-01-27T05:52:39.380Z,0
2017-01-27T05:53:48.797Z,0
2017-01-27T05:54:58.210Z,0
2017-01-27T05:56:07.284Z,0
2017-01-27T05:57:16.694Z,0
2017-01-27T05:58:26.491Z,0
2017-01-27T05:59:35.549Z,0
2017-01-27T06:00:44.582Z,0
2017-01-27T06:01:53.612Z,0
2017-01-27T06:03:03.409Z,0
2017-01-27T06:04:13.213Z,0
2017-01-27T06:05:21.862Z,0
2017-01-27T06:06:31.661Z,0
2017-01-27T06:07:41.838Z,0
2017-01-27T06:08:51.253Z,0
2017-01-27T06:09:59.902Z,0
2017-01-27T06:11:09.311Z,0
2017-01-27T06:12:17.963Z,0
2017-01-27T06:13:27.004Z,0
2017-01-27T06:14:36.417Z,0
2017-01-27T06:15:45.829Z,0
2017-01-27T06:16:55.243Z,0
2017-01-27T06:18:04.272Z,0
2017-01-27T06:19:14.075Z,0
2017-01-27T06:20:24.256Z,0
2017-01-27T06:21:34.058Z,0
2017-01-27T06:22:44.626Z,0
2017-01-27T06:23:54.426Z,0
2017-01-27T06:25:04.614Z,0
2017-01-27T06:26:14.085Z,0
2017-01-27T06:27:23.893Z,0
2017-01-27T06:28:34.084Z,0
2017-01-27T06:29:43.142Z,0
2017-01-27T06:30:52.198Z,0
2017-01-27T06:32:01.639Z,0
2017-01-27T06:33:10.744Z,0
2017-01-27T06:34:19.775Z,0
2017-01-27T06:35:29.195Z,0
2017-01-27T06:36:39.762Z,0
2017-01-27T06:37:49.561Z,0
2017-01-27T06:38:58.980Z,0
2017-01-27T06:40:09.167Z,0
2017-01-27T06:41:19.347Z,0
2017-01-27T06:42:29.531Z,0
2017-01-27T06:43:38.570Z,0
2017-01-27T06:44:48.379Z,0
2017-01-27T06:45:58.182Z,0
2017-01-27T06:47:08.369Z,0
2017-01-27T06:48:17.785Z,0
2017-01-27T06:49:27.202Z,0
2017-01-27T06:50:36.232Z,0
2017-01-27T06:51:45.260Z,0
2017-01-27T06:52:55.059Z,0
2017-01-27T06:54:04.108Z,0
2017-01-27T06:55:14.290Z,0
2017-01-27T06:56:23.708Z,0
2017-01-27T06:57:32.405Z,0
2017-01-27T06:58:42.591Z,0
2017-01-27T06:59:51.245Z,0
2017-01-27T07:01:00.659Z,0
2017-01-27T07:02:09.695Z,0
2017-01-27T07:03:18.352Z,0
2017-01-27T07:04:27.389Z,0
2017-01-27T07:05:37.193Z,0
2017-01-27T07:06:46.616Z,0
2017-01-27T07:07:55.657Z,5
2017-01-27T07:09:05.076Z,5
2017-01-27T07:10:14.494Z,5
2017-01-27T07:11:23.525Z,5
2017-01-27T07:12:32.177Z,5
2017-01-27T07:13:41.988Z,10
2017-01-27T07:14:51.416Z,10
2017-01-27T07:16:00.456Z,10
2017-01-27T07:17:10.269Z,10
2017-01-27T07:18:20.446Z,10
2017-01-27T07:19:30.249Z,15
2017-01-27T07:20:40.050Z,15
2017-01-27T07:21:49.857Z,15
2017-01-27T07:22:58.913Z,15
2017-01-27T07:24:08.334Z,20
2017-01-27T07:25:17.364Z,20
2017-01-27T07:26:26.404Z,20
2017-01-27T07:27:35.062Z,20
2017-01-27T07:28:44.100Z,25
2017-01-27T07:29:53.897Z,25
2017-01-27T07:31:03.318Z,25
2017-01-27T07:32:12.733Z,30
2017-01-27T07:33:22.147Z,30
2017-01-27T07:34:31.187Z,30
2017-01-27T07:35:40.990Z,35
2017-01-27T07:36:50.792Z,35
2017-01-27T07:38:00.972Z,35
2017-01-27T07:39:10.775Z,40
2017-01-27T07:40:20.190Z,45
2017-01-27T07:41:29.605Z,45
2017-01-27T07:42:38.645Z,45
2017-01-27T07:43:47.681Z,50
2017-01-27T07:44:57.099Z,55
2017-01-27T07:46:06.516Z,55
2017-01-27T07:47:15.173Z,60
2017-01-27T07:48:24.591Z,65
2017-01-27T07:49:33.637Z,65
2017-01-27T07:50:43.088Z,70
2017-01-27T07:51:52.118Z,75
2017-01-27T07:53:01.154Z,75
2017-01-27T07:54:10.957Z,80
2017-01-27T07:55:20.369Z,85
2017-01-27T07:56:29.023Z,85
2017-01-27T07:57:38.443Z,85
2017-01-27T07:58:47.481Z,90
2017-01-27T07:59:56.895Z,90
2017-01-27T08:01:05.937Z,95
2017-01-27T08:02:14.586Z,100
2017-01-27T08:03:24.002Z,100
2017-01-27T08:04:32.663Z,105
2017-01-27T08:05:42.083Z,105
2017-01-27T08:06:51.534Z,110
2017-01-27T08:08:00.954Z,115
2017-01-27T08:09:10.774Z,115
2017-01-27T08:10:19.811Z,120
2017-01-27T08:11:29.617Z,120
2017-01-27T08:12:39.042Z,125
2017-01-27T08:13:48.082Z,125
2017-01-27T08:14:57.891Z,130
2017-01-27T08:16:07.686Z,130
2017-01-27T08:17:17.098Z,135
2017-01-27T08:18:25.748Z,140
2017-01-27T08:19:35.165Z,150
2017-01-27T08:20:44.580Z,155
2017-01-27T08:21:53.613Z,155
2017-01-27T08:23:02.676Z,160
2017-01-27T08:24:12.478Z,160
2017-01-27T08:25:21.508Z,165
2017-01-27T08:26:30.541Z,170
2017-01-27T08:27:39.576Z,175
2017-01-27T08:28:49.377Z,180
2017-01-27T08:29:59.175Z,185
2017-01-27T08:31:08.591Z,190
2017-01-27T08:32:17.621Z,195
2017-01-27T08:33:27.037Z,195
2017-01-27T08:34:36.072Z,205
2017-01-27T08:35:44.724Z,205
2017-01-27T08:36:53.758Z,210
2017-01-27T08:38:02.406Z,210
2017-01-27T08:39:12.204Z,210
2017-01-27T08:40:22.004Z,210
2017-01-27T08:41:31.805Z,215
2017-01-27T08:42:40.844Z,220
2017-01-27T08:43:50.644Z,220
2017-01-27T08:45:00.067Z,225
2017-01-27T08:46:09.872Z,230
2017-01-27T08:47:19.291Z,230
2017-01-27T08:48:28.328Z,235
2017-01-27T08:49:37.368Z,240
2017-01-27T08:50:47.166Z,245
2017-01-27T08:51:56.969Z,245
2017-01-27T08:53:06.415Z,250
2017-01-27T08:54:15.461Z,255
2017-01-27T08:55:24.544Z,250
2017-01-27T08:56:34.733Z,250
2017-01-27T08:57:44.578Z,250
2017-01-27T08:58:54.431Z,255
2017-01-27T09:00:04.234Z,255
2017-01-27T09:01:13.652Z,260
2017-01-27T09:02:22.690Z,265
2017-01-27T09:03:32.496Z,265
2017-01-27T09:04:42.293Z,270
2017-01-27T09:05:51.717Z,275
2017-01-27T09:07:01.525Z,280
2017-01-27T09:08:10.944Z,285
2017-01-27T09:09:19.987Z,290
2017-01-27T09:10:29.402Z,295
2017-01-27T09:11:39.210Z,300
2017-01-27T09:12:48.632Z,305
2017-01-27T09:13:58.436Z,315
2017-01-27T09:15:08.243Z,320
2017-01-27T09:16:17.713Z,320
2017-01-27T09:17:27.138Z,325
2017-01-27T09:18:37.326Z,330
2017-01-27T09:19:47.513Z,335
2017-01-27T09:20:58.084Z,340
2017-01-27T09:22:07.502Z,345
2017-01-27T09:23:17.297Z,345
2017-01-27T09:24:26.339Z,345
2017-01-27T09:25:34.991Z,345
2017-01-27T09:26:44.790Z,350
2017-01-27T09:27:54.591Z,355
2017-01-27T09:29:04.014Z,360
2017-01-27T09:30:13.052Z,365
2017-01-27T09:31:22.088Z,365
2017-01-27T09:32:31.507Z,370
2017-01-27T09:33:40.592Z,370
2017-01-27T09:34:49.634Z,370
2017-01-27T09:35:59.054Z,370
2017-01-27T09:37:08.482Z,375
2017-01-27T09:38:18.284Z,375
2017-01-27T09:39:28.096Z,375
2017-01-27T09:40:37.517Z,380
2017-01-27T09:41:46.946Z,385
2017-01-27T09:42:56.361Z,380
2017-01-27T09:44:06.165Z,380
2017-01-27T09:45:15.198Z,385
2017-01-27T09:46:24.628Z,385
2017-01-27T09:47:34.435Z,390
2017-01-27T09:48:44.642Z,385
2017-01-27T09:49:54.065Z,385
2017-01-27T09:51:03.865Z,380
2017-01-27T09:52:13.672Z,370
2017-01-27T09:53:22.700Z,370
2017-01-27T09:54:31.358Z,370
2017-01-27T09:55:40.016Z,370
2017-01-27T09:56:49.814Z,360
2017-01-27T09:57:59.232Z,360
2017-01-27T09:59:08.271Z,360
2017-01-27T10:00:16.929Z,355
2017-01-27T10:01:26.735Z,360
2017-01-27T10:02:35.391Z,365
2017-01-27T10:03:44.814Z,370
2017-01-27T10:04:54.233Z,370
2017-01-27T10:06:03.271Z,375
2017-01-27T10:07:12.318Z,375
2017-01-27T10:08:22.510Z,385
2017-01-27T10:09:32.313Z,400
2017-01-27T10:10:41.350Z,405
2017-01-27T10:11:50.777Z,405
2017-01-27T10:13:00.196Z,405
2017-01-27T10:14:09.233Z,405
2017-01-27T10:15:17.885Z,405
2017-01-27T10:16:26.537Z,410
2017-01-27T10:17:36.340Z,415
2017-01-27T10:18:46.143Z,415
2017-01-27T10:19:54.804Z,420
2017-01-27T10:21:04.226Z,425
2017-01-27T10:22:13.643Z,415
2017-01-27T10:23:22.714Z,410
2017-01-27T10:24:31.757Z,410
2017-01-27T10:25:40.416Z,410
2017-01-27T10:26:50.250Z,415
2017-01-27T10:27:59.669Z,415
2017-01-27T10:29:09.093Z,420
2017-01-27T10:30:18.127Z,435
2017-01-27T10:31:27.229Z,470
2017-01-27T10:32:37.418Z,620
2017-01-27T10:33:46.844Z,590
2017-01-27T10:34:55.880Z,640
2017-01-27T10:36:04.924Z,640
2017-01-27T10:37:14.393Z,700
2017-01-27T10:38:23.433Z,740
2017-01-27T10:39:33.241Z,780
2017-01-27T10:40:42.685Z,905
2017-01-27T10:41:52.108Z,940
2017-01-27T10:43:00.774Z,875
2017-01-27T10:44:10.961Z,795
2017-01-27T10:45:20.010Z,790
2017-01-27T10:46:29.814Z,830
2017-01-27T10:47:39.623Z,840
2017-01-27T10:48:49.470Z,805
2017-01-27T10:49:58.889Z,815
2017-01-27T10:51:07.935Z,890
2017-01-27T10:52:17.749Z,935
2017-01-27T10:53:27.938Z,765
2017-01-27T10:54:37.750Z,840
2017-01-27T10:55:46.796Z,915
2017-01-27T10:56:56.992Z,925
2017-01-27T10:58:06.809Z,900
2017-01-27T10:59:16.611Z,940
2017-01-27T11:00:26.044Z,930
2017-01-27T11:01:35.854Z,870
2017-01-27T11:02:45.666Z,895
2017-01-27T11:03:55.477Z,895
2017-01-27T11:05:05.293Z,865
2017-01-27T11:06:15.108Z,850
2017-01-27T11:07:24.536Z,825
2017-01-27T11:08:34.341Z,825
2017-01-27T11:09:44.918Z,880
2017-01-27T11:10:53.963Z,815
2017-01-27T11:12:04.227Z,845
2017-01-27T11:13:13.663Z,840
2017-01-27T11:14:23.090Z,720
2017-01-27T11:15:32.530Z,445
2017-01-27T11:16:42.340Z,355
2017-01-27T11:17:51.381Z,340
2017-01-27T11:19:00.807Z,340
2017-01-27T11:20:10.621Z,340
2017-01-27T11:21:19.664Z,340
2017-01-27T11:22:28.706Z,340
2017-01-27T11:23:38.513Z,340
2017-01-27T11:24:47.941Z,340
2017-01-27T11:25:56.603Z,335
2017-01-27T11:27:05.645Z,315
2017-01-27T11:28:15.073Z,315
2017-01-27T11:29:23.727Z,310
2017-01-27T11:30:33.152Z,315
2017-01-27T11:31:42.626Z,315
2017-01-27T11:32:52.046Z,315
2017-01-27T11:34:01.092Z,320
2017-01-27T11:35:10.518Z,320
2017-01-27T11:36:19.939Z,330
2017-01-27T11:37:29.360Z,330
2017-01-27T11:38:38.789Z,325
2017-01-27T11:39:48.626Z,330
2017-01-27T11:40:58.048Z,335
2017-01-27T11:42:07.850Z,330
2017-01-27T11:43:16.885Z,330
2017-01-27T11:44:26.687Z,325
2017-01-27T11:45:36.497Z,315
2017-01-27T11:46:45.164Z,310
2017-01-27T11:47:54.208Z,310
2017-01-27T11:49:03.642Z,315
2017-01-27T11:50:13.474Z,315
2017-01-27T11:51:22.918Z,315
2017-01-27T11:52:31.576Z,310
2017-01-27T11:53:41.378Z,310
2017-01-27T11:54:51.187Z,310
2017-01-27T11:56:00.231Z,315
2017-01-27T11:57:09.278Z,315
2017-01-27T11:58:18.370Z,315
2017-01-27T11:59:27.791Z,315
2017-01-27T12:00:37.609Z,320
2017-01-27T12:01:47.035Z,325
2017-01-27T12:02:56.078Z,325
2017-01-27T12:04:05.505Z,330
2017-01-27T12:05:14.543Z,330
2017-01-27T12:06:23.977Z,335
2017-01-27T12:07:33.778Z,335
2017-01-27T12:08:43.272Z,330
2017-01-27T12:09:52.706Z,325
2017-01-27T12:11:01.748Z,320
2017-01-27T12:12:11.559Z,315
2017-01-27T12:13:21.365Z,315
2017-01-27T12:14:30.787Z,315
2017-01-27T12:15:40.599Z,315
2017-01-27T12:16:50.035Z,320
2017-01-27T12:17:59.073Z,320
2017-01-27T12:19:08.143Z,325
2017-01-27T12:20:17.584Z,330
2017-01-27T12:21:26.240Z,340
2017-01-27T12:22:35.285Z,345
2017-01-27T12:23:45.090Z,360
2017-01-27T12:24:54.511Z,370
2017-01-27T12:26:03.557Z,380
2017-01-27T12:27:12.596Z,395
2017-01-27T12:28:22.020Z,405
2017-01-27T12:29:31.443Z,410
2017-01-27T12:30:41.250Z,420
2017-01-27T12:31:50.682Z,430
2017-01-27T12:32:59.733Z,430
2017-01-27T12:34:09.168Z,435
2017-01-27T12:35:19.364Z,435
2017-01-27T12:36:28.411Z,435
2017-01-27T12:37:37.453Z,430
2017-01-27T12:38:47.265Z,435
2017-01-27T12:39:57.068Z,430
2017-01-27T12:41:06.495Z,425
2017-01-27T12:42:15.535Z,430
2017-01-27T12:43:24.574Z,430
2017-01-27T12:44:33.621Z,430
2017-01-27T12:45:48.311Z,430
2017-01-27T12:46:58.454Z,435
2017-01-27T12:48:20.786Z,435
2017-01-27T12:49:42.049Z,435
2017-01-27T12:51:00.641Z,435
2017-01-27T12:52:15.499Z,430
2017-01-27T12:53:30.225Z,430
2017-01-27T12:54:50.557Z,425
2017-01-27T12:55:59.983Z,430
2017-01-27T12:57:21.165Z,430
2017-01-27T12:58:31.417Z,435
2017-01-27T12:59:40.876Z,445
2017-01-27T13:00:50.304Z,450
2017-01-27T13:01:59.726Z,455
2017-01-27T13:03:09.154Z,460
2017-01-27T13:04:18.205Z,465
2017-01-27T13:05:27.248Z,465
2017-01-27T13:06:36.297Z,465
2017-01-27T13:07:45.346Z,465
2017-01-27T13:08:54.389Z,465
2017-01-27T13:10:03.449Z,465
2017-01-27T13:11:12.881Z,465
2017-01-27T13:12:22.306Z,465
2017-01-27T13:13:32.499Z,465
2017-01-27T13:14:42.692Z,460
2017-01-27T13:15:51.736Z,445
2017-01-27T13:17:01.168Z,435
2017-01-27T13:18:10.980Z,425
2017-01-27T13:19:21.171Z,420
2017-01-27T13:20:30.213Z,415
2017-01-27T13:21:39.265Z,410
2017-01-27T13:22:49.073Z,405
2017-01-27T13:23:58.117Z,405
2017-01-27T13:25:07.543Z,400
2017-01-27T13:26:17.357Z,400
2017-01-27T13:27:27.170Z,405
2017-01-27T13:28:36.212Z,400
2017-01-27T13:29:45.255Z,400
2017-01-27T13:30:55.068Z,400
2017-01-27T13:32:04.878Z,400
2017-01-27T13:33:14.686Z,400
2017-01-27T13:34:24.119Z,395
2017-01-27T13:35:33.930Z,395
2017-01-27T13:36:43.755Z,385
2017-01-27T13:37:53.951Z,380
2017-01-27T13:39:03.756Z,370
2017-01-27T13:40:12.805Z,360
2017-01-27T13:41:21.846Z,355
2017-01-27T13:42:31.654Z,350
2017-01-27T13:43:41.095Z,345
2017-01-27T13:44:50.914Z,340
2017-01-27T13:45:59.965Z,335
2017-01-27T13:47:09.003Z,335
2017-01-27T13:48:17.670Z,330
2017-01-27T13:49:27.477Z,330
2017-01-27T13:50:36.902Z,335
2017-01-27T13:51:45.944Z,335
2017-01-27T13:52:54.988Z,335
2017-01-27T13:54:03.647Z,340
2017-01-27T13:55:13.074Z,340
2017-01-27T13:56:22.122Z,335
2017-01-27T13:57:31.558Z,340
2017-01-27T13:58:41.374Z,340
2017-01-27T13:59:51.568Z,345
2017-01-27T14:01:00.991Z,335
2017-01-27T14:02:10.419Z,335
2017-01-27T14:03:20.226Z,330
2017-01-27T14:04:29.650Z,330
2017-01-27T14:05:38.690Z,330
2017-01-27T14:06:47.757Z,325
2017-01-27T14:07:56.802Z,325
2017-01-27T14:09:06.618Z,325
2017-01-27T14:10:16.042Z,320
2017-01-27T14:11:25.093Z,315
2017-01-27T14:12:34.167Z,310
2017-01-27T14:13:43.234Z,310
2017-01-27T14:14:52.657Z,300
2017-01-27T14:16:01.326Z,290
2017-01-27T14:17:11.137Z,280
2017-01-27T14:18:20.586Z,270
2017-01-27T14:19:29.629Z,265
2017-01-27T14:20:39.451Z,255
2017-01-27T14:21:48.496Z,250
2017-01-27T14:22:58.301Z,245
2017-01-27T14:24:07.729Z,245
2017-01-27T14:25:17.153Z,245
2017-01-27T14:26:26.581Z,245
2017-01-27T14:27:36.002Z,245
2017-01-27T14:28:45.052Z,245
2017-01-27T14:29:54.094Z,240
2017-01-27T14:31:03.137Z,240
2017-01-27T14:32:12.943Z,240
2017-01-27T14:33:21.987Z,235
2017-01-27T14:34:31.462Z,240
2017-01-27T14:35:40.503Z,230
2017-01-27T14:36:50.313Z,230
2017-01-27T14:38:00.122Z,225
2017-01-27T14:39:09.555Z,225
2017-01-27T14:40:19.441Z,225
2017-01-27T14:41:28.483Z,220
2017-01-27T14:42:37.912Z,220
2017-01-27T14:43:46.969Z,220
2017-01-27T14:44:56.014Z,220
2017-01-27T14:46:05.487Z,215
2017-01-27T14:47:14.144Z,210
2017-01-27T14:48:23.570Z,210
2017-01-27T14:49:32.625Z,205
2017-01-27T14:50:42.433Z,205
2017-01-27T14:51:51.095Z,200
2017-01-27T14:53:00.520Z,200
2017-01-27T14:54:10.714Z,195
2017-01-27T14:55:19.759Z,190
2017-01-27T14:56:29.189Z,190
2017-01-27T14:57:38.666Z,185
2017-01-27T14:58:48.472Z,180
2017-01-27T14:59:58.664Z,175
2017-01-27T15:01:07.708Z,170
2017-01-27T15:02:16.367Z,165
2017-01-27T15:03:26.180Z,160
2017-01-27T15:04:35.256Z,155
2017-01-27T15:05:45.066Z,155
2017-01-27T15:06:53.725Z,150
2017-01-27T15:08:03.180Z,145
2017-01-27T15:09:12.598Z,145
2017-01-27T15:10:22.021Z,140
2017-01-27T15:11:31.067Z,135
2017-01-27T15:12:40.492Z,135
2017-01-27T15:13:49.532Z,130
2017-01-27T15:14:58.963Z,130
2017-01-27T15:16:08.391Z,125
2017-01-27T15:17:17.436Z,120
2017-01-27T15:18:27.243Z,120
2017-01-27T15:19:36.680Z,115
2017-01-27T15:20:46.116Z,110
2017-01-27T15:21:54.773Z,110
2017-01-27T15:23:03.816Z,110
2017-01-27T15:24:13.624Z,100
2017-01-27T15:25:22.667Z,95
2017-01-27T15:26:31.704Z,95
2017-01-27T15:27:40.757Z,90
2017-01-27T15:28:50.185Z,85
2017-01-27T15:29:58.851Z,85
2017-01-27T15:31:08.274Z,85
2017-01-27T15:32:17.694Z,80
2017-01-27T15:33:27.122Z,80
2017-01-27T15:34:36.929Z,75
2017-01-27T15:35:47.124Z,70
2017-01-27T15:36:55.786Z,70
2017-01-27T15:38:05.609Z,65
2017-01-27T15:39:15.037Z,65
2017-01-27T15:40:24.459Z,60
2017-01-27T15:41:33.887Z,60
2017-01-27T15:42:42.928Z,55
2017-01-27T15:43:51.972Z,55
2017-01-27T15:45:02.163Z,50
2017-01-27T15:46:11.208Z,50
2017-01-27T15:47:19.885Z,45
2017-01-27T15:48:28.927Z,45
2017-01-27T15:49:39.138Z,45
2017-01-27T15:50:48.561Z,40
2017-01-27T15:51:57.983Z,40
2017-01-27T15:53:07.024Z,40
2017-01-27T15:54:16.828Z,35
2017-01-27T15:55:25.865Z,35
2017-01-27T15:56:34.909Z,30
2017-01-27T15:57:45.100Z,30
2017-01-27T15:58:54.143Z,30
2017-01-27T16:00:03.950Z,25
2017-01-27T16:01:13.042Z,25
2017-01-27T16:02:22.475Z,25
2017-01-27T16:03:32.308Z,20
2017-01-27T16:04:41.346Z,20
2017-01-27T16:05:51.562Z,20
2017-01-27T16:07:00.987Z,15
2017-01-27T16:08:10.031Z,15
2017-01-27T16:09:19.461Z,15
2017-01-27T16:10:29.273Z,10
2017-01-27T16:11:38.326Z,10
2017-01-27T16:12:47.373Z,10
2017-01-27T16:13:56.425Z,10
2017-01-27T16:15:06.624Z,10
2017-01-27T16:16:15.290Z,5
2017-01-27T16:17:23.958Z,5
2017-01-27T16:18:33.383Z,5
2017-01-27T16:19:42.431Z,5
2017-01-27T16:20:52.236Z,5
2017-01-27T16:22:02.422Z,5
2017-01-27T16:23:11.845Z,5
2017-01-27T16:24:20.887Z,0
2017-01-27T16:25:29.930Z,0
2017-01-27T16:26:38.981Z,0
2017-01-27T16:27:48.790Z,0
2017-01-27T16:28:57.850Z,0
2017-01-27T16:30:06.915Z,0
2017-01-27T16:31:15.962Z,0
2017-01-27T16:32:25.388Z,0